createdAt,value
2022-08-14T00:02:27.513Z,5.50
2022-08-14T00:04:56.126Z,7.38
2022-08-14T00:07:23.944Z,3.20
2022-08-14T00:09:56.100Z,4.65
2022-08-14T00:12:39.078Z,5.18
2022-08-14T00:15:19.242Z,3.90
2022-08-14T00:17:52.977Z,3.92
2022-08-14T00:20:35.790Z,4.13
2022-08-14T00:23:16.297Z,4.32
2022-08-14T00:25:58.774Z,5.47
2022-08-14T00:28:36.712Z,3.97
2022-08-14T00:31:08.161Z,8.02
2022-08-14T00:33:52.101Z,6.82
2022-08-14T00:36:37.003Z,6.00
2022-08-14T00:39:17.770Z,6.97
2022-08-14T00:41:47.338Z,4.88
2022-08-14T00:44:21.321Z,5.35
2022-08-14T00:47:02.369Z,7.20
2022-08-14T00:49:38.030Z,5.13
2022-08-14T00:52:14.198Z,7.07
2022-08-14T00:54:52.974Z,7.03
2022-08-14T00:57:30.417Z,6.80
2022-08-14T01:00:00.559Z,7.70
2022-08-14T01:02:31.775Z,6.65
2022-08-14T01:05:07.673Z,11.57
2022-08-14T01:07:38.903Z,4.85
2022-08-14T01:10:15.296Z,5.30
2022-08-14T01:12:44.290Z,5.90
2022-08-14T01:15:18.780Z,5.80
2022-08-14T01:18:05.236Z,8.05
2022-08-14T01:20:51.988Z,6.28
2022-08-14T01:23:21.813Z,5.93
2022-08-14T01:25:52.393Z,6.93
2022-08-14T01:28:46.729Z,5.82
2022-08-14T01:31:18.872Z,7.78
2022-08-14T01:35:15.784Z,7.47
2022-08-14T01:36:39.277Z,6.57
2022-08-14T01:39:17.571Z,11.88
2022-08-14T01:41:58.557Z,7.10
2022-08-14T01:44:32.672Z,10.98
2022-08-14T01:47:21.311Z,6.65
2022-08-14T01:49:59.939Z,6.63
2022-08-14T01:52:59.311Z,5.53
2022-08-14T01:55:32.951Z,18.67
2022-08-14T01:58:19.492Z,28.35
2022-08-14T02:00:55.441Z,18.92
2022-08-14T02:03:29.911Z,16.40
2022-08-14T02:06:03.894Z,14.10
2022-08-14T02:08:53.126Z,16.45
2022-08-14T02:11:25.155Z,8.88
2022-08-14T02:14:07.178Z,7.10
2022-08-14T02:16:41.430Z,13.15
2022-08-14T02:19:18.044Z,9.88
2022-08-14T02:21:50.476Z,9.50
2022-08-14T02:24:39.858Z,14.70
2022-08-14T02:28:24.452Z,7.72
2022-08-14T02:29:59.772Z,8.07
2022-08-14T02:32:36.578Z,7.70
2022-08-14T02:35:19.285Z,8.13
2022-08-14T02:37:50.689Z,8.60
2022-08-14T02:40:31.838Z,14.70
2022-08-14T02:43:03.872Z,9.18
2022-08-14T02:45:38.590Z,7.45
2022-08-14T02:49:01.843Z,9.43
2022-08-14T02:51:07.219Z,11.00
2022-08-14T02:53:44.390Z,7.97
2022-08-14T02:56:30.021Z,10.40
2022-08-14T02:59:05.671Z,5.45
2022-08-14T03:01:43.917Z,8.52
2022-08-14T03:04:20.633Z,7.17
2022-08-14T03:06:57.996Z,5.88
2022-08-14T03:10:24.337Z,10.90
2022-08-14T03:12:31.314Z,8.32
2022-08-14T03:15:03.077Z,7.75
2022-08-14T03:17:55.975Z,5.75
2022-08-14T03:20:22.379Z,6.90
2022-08-14T03:22:51.582Z,9.38
2022-08-14T03:25:22.129Z,8.20
2022-08-14T03:27:58.490Z,8.57
2022-08-14T03:30:37.025Z,7.38
2022-08-14T03:33:10.866Z,7.75
2022-08-14T03:35:59.732Z,7.55
2022-08-14T03:39:12.573Z,10.00
2022-08-14T03:41:23.282Z,8.23
2022-08-14T03:44:01.543Z,7.05
2022-08-14T03:46:54.922Z,7.80
2022-08-14T03:49:29.394Z,10.00
2022-08-14T03:52:18.153Z,8.20
2022-08-14T03:54:52.897Z,9.30
2022-08-14T03:57:22.728Z,10.07
2022-08-14T03:59:51.908Z,12.25
2022-08-14T04:02:32.492Z,8.48
2022-08-14T04:05:12.804Z,8.25
2022-08-14T04:07:49.612Z,9.05
2022-08-14T04:10:32.009Z,9.20
2022-08-14T04:13:03.509Z,7.18
2022-08-14T04:15:55.869Z,8.93
2022-08-14T04:18:23.542Z,7.45
2022-08-14T04:20:55.120Z,9.27
2022-08-14T04:23:29.730Z,8.35
2022-08-14T04:26:04.815Z,8.57
2022-08-14T04:33:00.981Z,10.13
2022-08-14T04:34:20.589Z,12.43
2022-08-14T04:37:07.434Z,10.45
2022-08-14T04:39:57.196Z,15.75
2022-08-14T04:42:47.101Z,14.35
2022-08-14T04:45:24.342Z,13.38
2022-08-14T04:48:12.526Z,12.32
2022-08-14T04:50:45.443Z,9.30
2022-08-14T04:53:26.271Z,11.40
2022-08-14T04:56:02.863Z,10.32
2022-08-14T04:58:33.782Z,11.20
2022-08-14T05:01:12.870Z,10.05
2022-08-14T05:03:45.692Z,9.20
2022-08-14T05:06:37.769Z,7.68
2022-08-14T05:09:01.981Z,11.00
2022-08-14T05:11:33.383Z,9.88
2022-08-14T05:14:42.837Z,11.35
2022-08-14T05:16:53.417Z,11.35
2022-08-14T05:19:29.315Z,9.57
2022-08-14T05:22:15.715Z,11.88
2022-08-14T05:24:50.338Z,9.70
2022-08-14T05:27:22.396Z,12.35
2022-08-14T05:29:55.101Z,11.25
2022-08-14T05:32:27.667Z,13.98
2022-08-14T05:34:58.625Z,11.73
2022-08-14T05:37:29.829Z,10.63
2022-08-14T05:39:59.551Z,13.10
2022-08-14T05:42:32.013Z,14.48
2022-08-14T05:45:04.678Z,13.15
2022-08-14T05:47:38.909Z,15.38
2022-08-14T05:50:19.309Z,12.73
2022-08-14T05:52:51.614Z,15.10
2022-08-14T05:55:22.163Z,14.95
2022-08-14T05:58:04.542Z,13.32
2022-08-14T06:00:42.434Z,11.13
2022-08-14T06:03:22.440Z,12.40
2022-08-14T06:05:54.722Z,9.70
2022-08-14T06:08:35.841Z,8.23
2022-08-14T06:11:10.136Z,11.60
2022-08-14T06:13:45.665Z,10.27
2022-08-14T06:16:18.341Z,11.02
2022-08-14T06:18:52.583Z,9.73
2022-08-14T06:21:24.434Z,11.60
2022-08-14T06:23:53.674Z,9.63
2022-08-14T06:26:22.575Z,11.32
2022-08-14T06:28:57.593Z,10.57
2022-08-14T06:31:25.597Z,12.68
2022-08-14T06:35:04.755Z,12.73
2022-08-14T06:36:41.230Z,13.02
2022-08-14T06:39:10.437Z,10.18
2022-08-14T06:41:57.820Z,6.90
2022-08-14T06:44:30.668Z,8.65
2022-08-14T06:47:05.484Z,6.82
2022-08-14T06:49:40.595Z,7.53
2022-08-14T06:52:15.384Z,11.68
2022-08-14T06:54:45.692Z,9.43
2022-08-14T06:57:13.947Z,6.07
2022-08-14T06:59:42.602Z,6.70
2022-08-14T07:02:29.997Z,10.70
2022-08-14T07:05:20.018Z,6.18
2022-08-14T07:07:51.955Z,9.48
2022-08-14T07:10:24.827Z,7.15
2022-08-14T07:13:01.793Z,9.73
2022-08-14T07:15:34.288Z,9.35
2022-08-14T07:18:09.667Z,7.65
2022-08-14T07:20:42.326Z,5.45
2022-08-14T07:23:21.050Z,9.18
2022-08-14T07:25:52.577Z,7.38
2022-08-14T07:28:25.395Z,10.70
2022-08-14T07:31:05.044Z,6.20
2022-08-14T07:33:50.068Z,9.45
2022-08-14T07:36:27.733Z,9.73
2022-08-14T07:39:03.156Z,7.32
2022-08-14T07:41:42.274Z,8.35
2022-08-14T07:44:29.363Z,5.00
2022-08-14T07:47:01.518Z,7.85
2022-08-14T07:49:29.326Z,4.07
2022-08-14T07:51:57.260Z,5.90
2022-08-14T07:54:29.843Z,6.00
2022-08-14T07:57:06.634Z,4.72
2022-08-14T07:59:44.103Z,4.75
2022-08-14T08:02:18.628Z,5.05
2022-08-14T08:04:54.364Z,7.53
2022-08-14T08:07:29.990Z,3.20
2022-08-14T08:12:32.087Z,6.20
2022-08-14T08:15:02.787Z,5.68
2022-08-14T08:17:38.533Z,6.45
2022-08-14T08:20:24.735Z,5.93
2022-08-14T08:23:00.359Z,2.97
2022-08-14T08:25:40.138Z,6.15
2022-08-14T08:28:22.062Z,8.82
2022-08-14T08:31:02.031Z,4.35
2022-08-14T08:33:37.232Z,5.40
2022-08-14T08:39:18.585Z,2.90
2022-08-14T08:41:45.536Z,3.67
2022-08-14T08:44:31.748Z,2.47
2022-08-14T08:47:06.450Z,4.65
2022-08-14T08:49:52.886Z,3.10
2022-08-14T08:52:32.371Z,6.53
2022-08-14T08:55:04.722Z,5.63
2022-08-14T08:57:39.391Z,3.15
2022-08-14T09:00:25.216Z,2.53
2022-08-14T09:03:10.015Z,2.38
2022-08-14T09:05:54.094Z,8.43
2022-08-14T09:08:32.794Z,4.97
2022-08-14T09:11:19.289Z,3.92
2022-08-14T09:13:54.086Z,3.83
2022-08-14T09:16:25.761Z,2.35
2022-08-14T09:18:55.135Z,6.15
2022-08-14T09:21:24.420Z,2.80
2022-08-14T09:24:28.589Z,3.00
2022-08-14T09:26:49.576Z,2.83
2022-08-14T09:29:19.858Z,2.25
2022-08-14T09:32:03.581Z,2.60
2022-08-14T09:35:13.682Z,4.90
2022-08-14T09:38:06.379Z,4.78
2022-08-14T09:41:11.734Z,2.38
2022-08-14T09:43:58.313Z,2.55
2022-08-14T09:46:27.847Z,2.95
2022-08-14T09:49:05.782Z,1.95
2022-08-14T09:51:51.671Z,3.15
2022-08-14T09:54:46.839Z,3.22
2022-08-14T09:57:37.553Z,2.15
2022-08-14T10:00:30.619Z,2.55
2022-08-14T10:03:05.126Z,2.92
2022-08-14T10:05:39.195Z,2.42
2022-08-14T10:08:26.185Z,3.28
2022-08-14T10:11:02.538Z,5.20
2022-08-14T10:13:42.770Z,2.35
2022-08-14T10:16:21.777Z,3.22
2022-08-14T10:19:13.374Z,3.47
2022-08-14T10:23:13.512Z,4.65
2022-08-14T10:25:00.565Z,3.33
2022-08-14T10:27:29.192Z,2.00
2022-08-14T10:30:04.528Z,2.28
2022-08-14T10:32:51.670Z,2.45
2022-08-14T10:35:22.536Z,3.10
2022-08-14T10:37:52.886Z,4.38
2022-08-14T10:40:37.554Z,4.20
2022-08-14T10:43:31.578Z,5.95
2022-08-14T10:46:22.041Z,4.05
2022-08-14T10:48:57.898Z,7.07
2022-08-14T10:51:30.091Z,2.00
2022-08-14T10:53:58.630Z,1.88
2022-08-14T10:56:34.961Z,6.55
2022-08-14T10:59:04.697Z,3.28
2022-08-14T11:01:40.793Z,5.50
2022-08-14T11:04:26.024Z,2.15
2022-08-14T11:06:56.790Z,2.83
2022-08-14T11:09:26.093Z,1.73
2022-08-14T11:12:33.093Z,2.72
2022-08-14T11:14:59.753Z,6.90
2022-08-14T11:17:37.487Z,2.63
2022-08-14T11:20:13.691Z,2.35
2022-08-14T11:23:03.186Z,4.10
2022-08-14T11:25:43.350Z,1.85
2022-08-14T11:28:19.169Z,1.95
2022-08-14T11:30:53.451Z,2.13
2022-08-14T11:33:25.029Z,1.70
2022-08-14T11:35:52.785Z,3.80
2022-08-14T11:38:29.240Z,1.80
2022-08-14T11:40:58.309Z,2.00
2022-08-14T11:43:29.526Z,2.20
2022-08-14T11:46:03.486Z,6.25
2022-08-14T11:49:03.993Z,4.00
2022-08-14T11:51:35.994Z,2.40
2022-08-14T11:54:08.218Z,3.42
2022-08-14T11:56:39.724Z,2.63
2022-08-14T11:59:18.691Z,2.80
2022-08-14T12:01:46.779Z,3.55
2022-08-14T12:04:21.634Z,3.95
2022-08-14T12:07:01.404Z,3.78
2022-08-14T12:09:35.480Z,2.38
2022-08-14T12:12:34.985Z,2.13
2022-08-14T12:15:06.870Z,4.90
2022-08-14T12:17:49.670Z,1.50
2022-08-14T12:20:30.283Z,3.65
2022-08-14T12:23:02.835Z,2.85
2022-08-14T12:25:35.325Z,3.10
2022-08-14T12:28:26.648Z,2.15
2022-08-14T12:30:59.890Z,3.03
2022-08-14T12:33:34.393Z,2.58
2022-08-14T12:36:08.590Z,4.18
2022-08-14T12:38:43.619Z,1.60
2022-08-14T12:41:24.123Z,1.92
2022-08-14T12:44:03.355Z,3.03
2022-08-14T12:46:35.889Z,1.58
2022-08-14T12:49:16.081Z,1.60
2022-08-14T12:51:56.417Z,2.92
2022-08-14T12:54:27.988Z,2.65
2022-08-14T12:57:24.256Z,1.38
2022-08-14T12:59:52.302Z,4.40
2022-08-14T13:02:27.566Z,2.65
2022-08-14T13:04:56.863Z,3.85
2022-08-14T13:07:32.818Z,2.35
2022-08-14T13:10:35.063Z,1.65
2022-08-14T13:15:57.470Z,3.72
2022-08-14T13:18:29.497Z,2.42
2022-08-14T13:21:01.065Z,1.73
2022-08-14T13:23:36.255Z,2.20
2022-08-14T13:26:04.517Z,2.80
2022-08-14T13:28:39.777Z,1.35
2022-08-14T13:31:11.121Z,3.42
2022-08-14T13:33:40.505Z,1.50
2022-08-14T13:36:23.669Z,1.88
2022-08-14T13:38:54.158Z,1.92
2022-08-14T13:41:28.075Z,2.05
2022-08-14T13:44:00.727Z,1.65
2022-08-14T13:46:28.547Z,2.00
2022-08-14T13:48:59.742Z,4.13
2022-08-14T13:51:35.613Z,1.63
2022-08-14T13:54:11.651Z,2.28
2022-08-14T13:56:40.974Z,2.75
2022-08-14T13:59:10.702Z,2.95
2022-08-14T14:01:43.769Z,1.83
2022-08-14T14:04:19.202Z,3.40
2022-08-14T14:06:51.999Z,5.30
2022-08-14T14:09:32.536Z,1.67
2022-08-14T14:12:38.354Z,2.63
2022-08-14T14:15:15.312Z,3.00
2022-08-14T14:17:47.837Z,1.23
2022-08-14T14:20:35.950Z,1.50
2022-08-14T14:23:11.829Z,2.25
2022-08-14T14:25:51.333Z,2.15
2022-08-14T14:28:32.182Z,1.50
2022-08-14T14:31:06.621Z,3.72
2022-08-14T14:33:51.636Z,1.65
2022-08-14T14:36:24.263Z,2.30
2022-08-14T14:39:03.647Z,2.38
2022-08-14T14:41:43.530Z,3.80
2022-08-14T14:44:15.879Z,1.20
2022-08-14T14:46:50.653Z,3.08
2022-08-14T14:49:21.649Z,1.58
2022-08-14T14:51:51.428Z,2.65
2022-08-14T14:54:31.135Z,4.22
2022-08-14T14:57:02.133Z,2.97
2022-08-14T14:59:33.282Z,1.73
2022-08-14T15:02:06.380Z,3.22
2022-08-14T15:04:38.546Z,2.72
2022-08-14T15:07:07.026Z,4.07
2022-08-14T15:09:35.101Z,4.22
2022-08-14T15:12:16.080Z,2.88
2022-08-14T15:14:54.886Z,2.00
2022-08-14T15:17:28.664Z,4.70
2022-08-14T15:20:17.142Z,2.70
2022-08-14T15:22:58.104Z,1.75
2022-08-14T15:25:29.922Z,1.92
2022-08-14T15:27:59.482Z,2.03
2022-08-14T15:30:32.559Z,10.07
2022-08-14T15:33:00.677Z,2.92
2022-08-14T15:35:29.582Z,2.35
2022-08-14T15:37:57.549Z,5.88
2022-08-14T15:40:26.195Z,2.30
2022-08-14T15:42:53.902Z,2.10
2022-08-14T15:45:23.913Z,1.60
2022-08-14T15:47:51.931Z,2.40
2022-08-14T15:50:19.758Z,1.65
2022-08-14T15:52:48.071Z,2.85
2022-08-14T15:55:16.617Z,2.65
2022-08-14T15:58:01.916Z,1.75
2022-08-14T16:00:55.902Z,2.60
2022-08-14T16:03:25.345Z,3.17
2022-08-14T16:06:10.529Z,2.70
2022-08-14T16:08:39.732Z,2.47
2022-08-14T16:11:09.822Z,2.20
2022-08-14T16:13:44.334Z,3.78
2022-08-14T16:16:47.657Z,2.00
2022-08-14T16:19:11.146Z,1.88
2022-08-14T16:21:40.940Z,3.03
2022-08-14T16:24:33.288Z,3.15
2022-08-14T16:27:05.198Z,1.60
2022-08-14T16:29:39.860Z,4.40
2022-08-14T16:32:32.706Z,2.55
2022-08-14T16:35:01.347Z,2.47
2022-08-14T16:37:30.371Z,3.17
2022-08-14T16:39:59.610Z,2.03
2022-08-14T16:42:39.015Z,3.53
2022-08-14T16:45:22.027Z,1.85
2022-08-14T16:47:51.224Z,1.42
2022-08-14T16:50:43.282Z,4.22
2022-08-14T16:53:09.517Z,8.15
2022-08-14T16:55:53.223Z,5.00
2022-08-14T16:58:29.911Z,1.88
2022-08-14T17:01:23.194Z,1.83
2022-08-14T17:04:08.707Z,3.97
2022-08-14T17:06:58.241Z,1.70
2022-08-14T17:09:43.734Z,2.80
2022-08-14T17:15:11.162Z,4.60
2022-08-14T17:17:38.943Z,3.83
2022-08-14T17:20:54.150Z,1.92
2022-08-14T17:23:11.077Z,2.40
2022-08-14T17:25:39.198Z,2.13
2022-08-14T17:28:50.025Z,3.25
2022-08-14T17:31:09.548Z,4.32
2022-08-14T17:33:44.123Z,1.60
2022-08-14T17:36:21.444Z,2.53
2022-08-14T17:39:13.535Z,1.83
2022-08-14T17:42:03.596Z,2.38
2022-08-14T17:44:45.368Z,2.90
2022-08-14T17:47:18.109Z,2.17
2022-08-14T17:49:52.169Z,2.72
2022-08-14T17:52:34.487Z,1.80
2022-08-14T17:55:05.723Z,2.15
2022-08-14T17:57:41.167Z,2.65
2022-08-14T18:00:16.485Z,6.28
2022-08-14T18:05:22.894Z,1.85
2022-08-14T18:08:33.228Z,1.83
2022-08-14T18:10:55.585Z,2.97
2022-08-14T18:13:50.814Z,6.32
2022-08-14T18:16:20.096Z,2.15
2022-08-14T18:18:49.860Z,6.68
2022-08-14T18:21:24.010Z,7.65
2022-08-14T18:24:29.214Z,3.97
2022-08-14T18:27:13.380Z,4.85
2022-08-14T18:29:56.470Z,2.10
2022-08-14T18:32:31.696Z,4.75
2022-08-14T18:35:13.168Z,3.50
2022-08-14T18:37:56.131Z,5.57
2022-08-14T18:40:35.038Z,2.63
2022-08-14T18:43:05.939Z,7.53
2022-08-14T18:45:41.601Z,3.90
2022-08-14T18:48:28.552Z,5.65
2022-08-14T18:51:45.740Z,3.45
2022-08-14T18:54:37.677Z,2.80
2022-08-14T18:57:09.071Z,2.42
2022-08-14T18:59:43.099Z,4.03
2022-08-14T19:02:30.506Z,4.53
2022-08-14T19:05:03.893Z,3.25
2022-08-14T19:07:33.441Z,13.95
2022-08-14T19:10:16.950Z,7.32
2022-08-14T19:12:56.632Z,6.07
2022-08-14T19:15:35.244Z,3.63
2022-08-14T19:18:26.436Z,6.57
2022-08-14T19:21:13.038Z,4.88
2022-08-14T19:23:43.961Z,17.42
2022-08-14T19:26:35.875Z,4.53
2022-08-14T19:29:38.224Z,2.80
2022-08-14T19:32:39.002Z,4.53
2022-08-14T19:35:49.064Z,5.15
2022-08-14T19:38:53.718Z,2.55
2022-08-14T19:41:34.480Z,3.13
2022-08-14T19:44:20.892Z,3.25
2022-08-14T19:47:04.912Z,7.88
2022-08-14T19:50:09.125Z,3.45
2022-08-14T19:52:39.502Z,6.10
2022-08-14T19:55:19.894Z,2.88
2022-08-14T19:57:52.191Z,5.22
2022-08-14T20:00:28.144Z,4.32
2022-08-14T20:03:09.894Z,4.55
2022-08-14T20:05:43.144Z,8.27
2022-08-14T20:10:57.988Z,8.93
2022-08-14T20:12:02.029Z,9.60
2022-08-14T20:14:27.919Z,2.70
2022-08-14T20:17:05.504Z,4.30
2022-08-14T20:19:37.700Z,5.43
2022-08-14T20:22:37.461Z,6.60
2022-08-14T20:25:21.576Z,4.07
2022-08-14T20:27:59.307Z,2.75
2022-08-14T20:30:33.500Z,7.95
2022-08-14T20:33:10.603Z,4.70
2022-08-14T20:35:39.168Z,3.42
2022-08-14T20:38:31.684Z,2.90
2022-08-14T20:41:12.328Z,4.43
2022-08-14T20:44:02.762Z,5.63
2022-08-14T20:46:39.385Z,4.55
2022-08-14T20:49:16.594Z,3.97
2022-08-14T20:51:58.758Z,6.72
2022-08-14T20:54:34.204Z,8.90
2022-08-14T20:57:17.524Z,2.88
2022-08-14T20:59:53.056Z,5.30
2022-08-14T21:02:46.496Z,5.82
2022-08-14T21:05:33.969Z,3.88
2022-08-14T21:08:09.810Z,5.05
2022-08-14T21:10:56.588Z,7.22
2022-08-14T21:14:18.937Z,3.70
2022-08-14T21:16:32.907Z,4.45
2022-08-14T21:19:04.140Z,5.43
2022-08-14T21:21:40.630Z,2.85
2022-08-14T21:24:38.515Z,2.47
2022-08-14T21:27:12.943Z,4.40
2022-08-14T21:29:53.775Z,4.32
2022-08-14T21:32:34.017Z,4.40
2022-08-14T21:35:08.750Z,5.35
2022-08-14T21:37:45.799Z,5.57
2022-08-14T21:40:41.206Z,2.40
2022-08-14T21:43:17.679Z,1.85
2022-08-14T21:45:53.424Z,6.55
2022-08-14T21:48:25.391Z,2.35
2022-08-14T21:51:01.301Z,3.03
2022-08-14T21:53:58.596Z,2.92
2022-08-14T21:56:38.631Z,1.90
2022-08-14T21:59:18.061Z,3.20
2022-08-14T22:02:00.119Z,2.40
2022-08-14T22:04:40.723Z,3.10
2022-08-14T22:07:17.418Z,2.00
2022-08-14T22:09:55.148Z,2.08
2022-08-14T22:12:58.870Z,6.22
2022-08-14T22:15:16.446Z,4.97
2022-08-14T22:17:52.383Z,4.63
2022-08-14T22:20:24.454Z,3.90
2022-08-14T22:22:56.167Z,2.58
2022-08-14T22:25:33.374Z,4.15
2022-08-14T22:28:07.594Z,3.60
2022-08-14T22:30:38.932Z,2.08
2022-08-14T22:33:10.073Z,2.92
2022-08-14T22:35:44.484Z,3.03
2022-08-14T22:38:35.554Z,4.32
2022-08-14T22:41:26.796Z,1.60
2022-08-14T22:43:54.041Z,2.30
2022-08-14T22:46:22.117Z,4.43
2022-08-14T22:48:51.261Z,2.20
2022-08-14T22:51:22.723Z,3.10
2022-08-14T22:53:54.199Z,3.78
2022-08-14T22:56:30.258Z,3.20
2022-08-14T22:59:09.522Z,2.53
2022-08-14T23:01:56.610Z,2.35
2022-08-14T23:04:35.967Z,5.05
2022-08-14T23:07:22.677Z,2.30
2022-08-14T23:10:31.881Z,2.55
2022-08-14T23:12:54.404Z,7.07
2022-08-14T23:15:30.288Z,2.95
2022-08-14T23:17:58.887Z,4.50
2022-08-14T23:20:29.451Z,2.22
2022-08-14T23:22:58.411Z,3.38
2022-08-14T23:25:57.462Z,2.83
2022-08-14T23:28:33.865Z,2.65
2022-08-14T23:31:26.573Z,4.57
2022-08-14T23:34:13.498Z,3.42
2022-08-14T23:36:55.429Z,3.63
2022-08-14T23:39:34.549Z,2.72
2022-08-14T23:42:09.293Z,2.72
2022-08-14T23:44:38.298Z,3.70
2022-08-14T23:47:10.679Z,3.10
2022-08-14T23:49:57.023Z,4.35
2022-08-14T23:52:50.500Z,4.65
2022-08-14T23:55:17.700Z,5.32
2022-08-14T23:57:58.672Z,5.97
